createdAt,value
2018-06-09T00:01:57.353Z,8.17
2018-06-09T00:04:26.625Z,7.80
2018-06-09T00:06:55.880Z,7.63
2018-06-09T00:09:25.120Z,7.57
2018-06-09T00:11:54.484Z,6.43
2018-06-09T00:14:23.851Z,7.07
2018-06-09T00:16:53.088Z,7.23
2018-06-09T00:19:22.344Z,6.97
2018-06-09T00:21:51.652Z,6.73
2018-06-09T00:24:20.920Z,6.37
2018-06-09T00:26:50.289Z,6.93
2018-06-09T00:29:19.033Z,6.80
2018-06-09T00:31:48.481Z,6.83
2018-06-09T00:34:17.775Z,6.17
2018-06-09T00:36:47.667Z,6.13
2018-06-09T00:39:17.357Z,7.17
2018-06-09T00:41:46.669Z,7.23
2018-06-09T00:44:15.997Z,6.77
2018-06-09T00:46:45.396Z,8.60
2018-06-09T00:49:14.676Z,9.30
2018-06-09T00:51:43.980Z,6.47
2018-06-09T00:54:13.329Z,7.30
2018-06-09T00:56:43.756Z,6.63
2018-06-09T00:59:13.017Z,6.17
2018-06-09T01:01:42.339Z,6.30
2018-06-09T01:04:11.977Z,9.80
2018-06-09T01:06:41.312Z,11.00
2018-06-09T01:09:10.604Z,7.33
2018-06-09T01:11:40.010Z,6.67
2018-06-09T01:14:09.313Z,8.00
2018-06-09T01:16:38.551Z,7.17
2018-06-09T01:19:07.985Z,7.83
2018-06-09T01:21:37.257Z,7.17
2018-06-09T01:24:06.544Z,9.27
2018-06-09T01:26:35.272Z,8.07
2018-06-09T01:29:04.624Z,8.77
2018-06-09T01:31:33.937Z,9.70
2018-06-09T01:34:03.208Z,9.07
2018-06-09T01:36:32.475Z,8.20
2018-06-09T01:39:01.745Z,8.63
2018-06-09T01:41:31.112Z,8.30
2018-06-09T01:44:00.404Z,7.90
2018-06-09T01:46:29.737Z,8.47
2018-06-09T01:48:58.486Z,8.57
2018-06-09T01:51:27.924Z,7.70
2018-06-09T01:53:57.172Z,8.00
2018-06-09T01:56:26.432Z,7.30
2018-06-09T01:58:55.137Z,6.40
2018-06-09T02:01:24.488Z,8.70
2018-06-09T02:03:53.761Z,11.77
2018-06-09T02:06:23.004Z,8.03
2018-06-09T02:08:52.282Z,7.23
2018-06-09T02:11:21.625Z,10.53
2018-06-09T02:13:50.384Z,7.03
2018-06-09T02:16:19.844Z,6.90
2018-06-09T02:18:49.099Z,6.87
2018-06-09T02:21:18.377Z,9.07
2018-06-09T02:23:47.709Z,7.33
2018-06-09T02:26:16.411Z,7.90
2018-06-09T02:28:45.684Z,8.97
2018-06-09T02:31:15.169Z,9.30
2018-06-09T02:33:44.397Z,8.90
2018-06-09T02:36:13.672Z,9.33
2018-06-09T02:38:42.942Z,9.43
2018-06-09T02:41:12.397Z,9.13
2018-06-09T02:43:41.644Z,8.27
2018-06-09T02:46:11.642Z,9.40
2018-06-09T02:48:40.928Z,5.93
2018-06-09T02:51:10.393Z,6.27
2018-06-09T02:53:39.632Z,7.23
2018-06-09T02:56:08.378Z,7.77
2018-06-09T02:58:37.653Z,7.93
2018-06-09T03:01:06.985Z,7.63
2018-06-09T03:03:36.220Z,8.30
2018-06-09T03:06:05.620Z,7.73
2018-06-09T03:08:34.876Z,7.60
2018-06-09T03:11:04.144Z,7.33
2018-06-09T03:13:33.401Z,7.33
2018-06-09T03:16:02.667Z,7.97
2018-06-09T03:18:31.904Z,8.20
2018-06-09T03:21:01.276Z,7.47
2018-06-09T03:23:30.507Z,7.70
2018-06-09T03:25:59.313Z,9.30
2018-06-09T03:28:28.108Z,9.57
2018-06-09T03:30:56.859Z,9.90
2018-06-09T03:33:26.191Z,11.63
2018-06-09T03:35:55.472Z,11.57
2018-06-09T03:38:24.717Z,8.47
2018-06-09T03:40:54.136Z,9.93
2018-06-09T03:43:23.447Z,13.30
2018-06-09T03:45:52.684Z,13.10
2018-06-09T03:48:21.395Z,7.40
2018-06-09T03:50:50.702Z,8.33
2018-06-09T03:53:20.072Z,8.60
2018-06-09T03:55:48.808Z,13.70
2018-06-09T03:58:18.089Z,7.83
2018-06-09T04:00:47.448Z,7.23
2018-06-09T04:03:16.697Z,8.53
2018-06-09T04:05:45.958Z,16.50
2018-06-09T04:08:15.226Z,11.60
2018-06-09T04:10:44.524Z,7.67
2018-06-09T04:13:13.748Z,8.20
2018-06-09T04:15:43.928Z,12.00
2018-06-09T04:18:13.183Z,13.67
2018-06-09T04:20:42.554Z,8.53
2018-06-09T04:23:11.808Z,8.20
2018-06-09T04:25:41.084Z,8.73
2018-06-09T04:28:10.336Z,7.60
2018-06-09T04:30:39.748Z,7.30
2018-06-09T04:33:09.016Z,7.57
2018-06-09T04:35:38.273Z,8.50
2018-06-09T04:38:06.983Z,8.77
2018-06-09T04:40:36.333Z,7.10
2018-06-09T04:43:05.808Z,7.00
2018-06-09T04:45:35.104Z,8.70
2018-06-09T04:48:04.363Z,7.53
2018-06-09T04:50:33.660Z,7.57
2018-06-09T04:53:02.901Z,7.67
2018-06-09T04:55:32.189Z,6.73
2018-06-09T04:58:01.436Z,6.97
2018-06-09T05:00:30.755Z,6.33
2018-06-09T05:03:00.244Z,6.50
2018-06-09T05:05:29.504Z,6.30
2018-06-09T05:07:58.757Z,7.40
2018-06-09T05:10:28.041Z,6.40
2018-06-09T05:12:57.298Z,6.20
2018-06-09T05:15:26.611Z,6.00
2018-06-09T05:17:55.873Z,5.73
2018-06-09T05:20:25.260Z,5.50
2018-06-09T05:22:54.573Z,5.37
2018-06-09T05:25:23.872Z,5.83
2018-06-09T05:27:53.569Z,5.43
2018-06-09T05:30:22.874Z,6.00
2018-06-09T05:32:52.312Z,5.43
2018-06-09T05:35:21.724Z,6.37
2018-06-09T05:37:51.108Z,5.63
2018-06-09T05:40:20.491Z,5.43
2018-06-09T05:42:49.795Z,6.23
2018-06-09T05:45:19.120Z,6.33
2018-06-09T05:47:48.357Z,6.17
2018-06-09T05:50:17.668Z,5.67
2018-06-09T05:52:46.916Z,5.50
2018-06-09T05:57:30.541Z,6.70
2018-06-09T05:59:59.816Z,5.83
2018-06-09T06:02:29.047Z,6.17
2018-06-09T06:04:58.340Z,5.77
2018-06-09T06:07:27.648Z,6.57
2018-06-09T06:09:56.988Z,6.80
2018-06-09T06:12:26.213Z,7.07
2018-06-09T06:14:55.440Z,9.27
2018-06-09T06:17:24.714Z,7.63
2018-06-09T06:19:53.944Z,8.13
2018-06-09T06:22:23.312Z,7.67
2018-06-09T06:24:52.582Z,9.07
2018-06-09T06:27:21.813Z,8.53
2018-06-09T06:29:51.043Z,8.80
2018-06-09T06:32:20.834Z,8.23
2018-06-09T06:34:50.139Z,8.07
2018-06-09T06:37:19.415Z,7.47
2018-06-09T06:39:48.748Z,7.40
2018-06-09T06:42:18.075Z,7.43
2018-06-09T06:44:47.381Z,7.10
2018-06-09T06:47:16.693Z,7.00
2018-06-09T06:49:45.992Z,6.80
2018-06-09T06:52:15.333Z,6.47
2018-06-09T06:54:44.681Z,6.20
2018-06-09T06:57:13.927Z,6.70
2018-06-09T06:59:43.244Z,5.97
2018-06-09T07:02:12.586Z,5.87
2018-06-09T07:04:41.880Z,5.63
2018-06-09T07:07:11.230Z,5.67
2018-06-09T07:09:40.533Z,5.23
2018-06-09T07:12:10.112Z,5.90
2018-06-09T07:14:39.519Z,5.90
2018-06-09T07:17:08.820Z,5.83
2018-06-09T07:19:38.081Z,5.60
2018-06-09T07:22:07.489Z,5.70
2018-06-09T07:24:36.788Z,5.37
2018-06-09T07:27:06.139Z,5.67
2018-06-09T07:29:35.441Z,6.07
2018-06-09T07:32:04.948Z,6.83
2018-06-09T07:34:34.394Z,6.27
2018-06-09T07:37:03.963Z,6.17
2018-06-09T07:39:33.294Z,6.20
2018-06-09T07:42:02.684Z,6.10
2018-06-09T07:44:32.177Z,5.60
2018-06-09T07:47:02.548Z,5.73
2018-06-09T07:49:31.821Z,5.70
2018-06-09T07:52:01.203Z,5.73
2018-06-09T07:54:30.492Z,6.00
2018-06-09T07:56:59.969Z,5.43
2018-06-09T07:59:29.353Z,5.43
2018-06-09T08:01:58.732Z,5.43
2018-06-09T08:04:28.120Z,5.57
2018-06-09T08:06:57.462Z,5.50
2018-06-09T08:09:26.749Z,6.07
2018-06-09T08:11:56.151Z,5.33
2018-06-09T08:14:25.469Z,4.77
2018-06-09T08:16:54.872Z,5.27
2018-06-09T08:19:24.310Z,5.80
2018-06-09T08:21:53.644Z,5.70
2018-06-09T08:24:22.982Z,6.13
2018-06-09T08:26:52.240Z,5.50
2018-06-09T08:29:37.540Z,4.97
2018-06-09T08:32:07.005Z,5.30
2018-06-09T08:34:36.443Z,5.20
2018-06-09T08:37:05.760Z,5.30
2018-06-09T08:39:35.087Z,4.60
2018-06-09T08:42:04.591Z,4.77
2018-06-09T08:44:33.783Z,4.40
2018-06-09T08:47:03.358Z,4.87
2018-06-09T08:49:32.688Z,4.63
2018-06-09T08:52:02.019Z,4.73
2018-06-09T08:54:31.252Z,4.90
2018-06-09T08:57:00.590Z,4.30
2018-06-09T08:59:29.977Z,4.30
2018-06-09T09:01:58.828Z,4.80
2018-06-09T09:04:28.123Z,4.30
2018-06-09T09:06:57.585Z,3.90
2018-06-09T09:09:26.917Z,4.37
2018-06-09T09:11:56.559Z,4.50
2018-06-09T09:14:25.830Z,3.77
2018-06-09T09:16:55.139Z,4.00
2018-06-09T09:19:24.602Z,4.10
2018-06-09T09:21:55.030Z,5.00
2018-06-09T09:24:24.323Z,4.90
2018-06-09T09:26:53.610Z,4.80
2018-06-09T09:29:22.927Z,4.80
2018-06-09T09:31:52.339Z,3.90
2018-06-09T09:34:21.628Z,4.07
2018-06-09T09:36:50.862Z,4.33
2018-06-09T09:39:20.200Z,4.47
2018-06-09T09:41:49.481Z,3.57
2018-06-09T09:44:19.239Z,3.93
2018-06-09T09:46:48.514Z,3.20
2018-06-09T09:49:17.804Z,3.90
2018-06-09T09:51:47.285Z,3.23
2018-06-09T09:54:18.141Z,3.83
2018-06-09T09:56:47.441Z,3.40
2018-06-09T09:59:16.820Z,3.63
2018-06-09T10:01:46.184Z,3.23
2018-06-09T10:04:15.516Z,3.97
2018-06-09T10:06:44.815Z,3.57
2018-06-09T10:09:14.109Z,4.00
2018-06-09T10:11:43.477Z,3.60
2018-06-09T10:14:12.314Z,3.43
2018-06-09T10:16:41.894Z,3.87
2018-06-09T10:19:12.425Z,3.07
2018-06-09T10:21:43.857Z,3.55
2018-06-09T10:24:13.219Z,3.22
2018-06-09T10:26:42.527Z,3.30
2018-06-09T10:29:11.825Z,3.33
2018-06-09T10:31:41.174Z,3.00
2018-06-09T10:34:10.428Z,3.05
2018-06-09T10:36:39.744Z,2.72
2018-06-09T10:39:09.415Z,2.83
2018-06-09T10:41:38.807Z,2.35
2018-06-09T10:44:08.080Z,2.80
2018-06-09T10:46:37.379Z,2.90
2018-06-09T10:49:06.689Z,2.60
2018-06-09T10:51:36.134Z,2.47
2018-06-09T10:54:05.449Z,2.60
2018-06-09T10:56:35.371Z,2.40
2018-06-09T10:59:04.716Z,2.50
2018-06-09T11:01:34.077Z,2.58
2018-06-09T11:04:03.467Z,2.22
2018-06-09T11:06:32.818Z,2.20
2018-06-09T11:09:02.159Z,2.70
2018-06-09T11:11:31.456Z,2.40
2018-06-09T11:14:00.760Z,2.60
2018-06-09T11:16:30.036Z,2.65
2018-06-09T11:18:59.332Z,2.30
2018-06-09T11:21:29.023Z,2.85
2018-06-09T11:23:58.368Z,2.42
2018-06-09T11:26:27.642Z,2.47
2018-06-09T11:28:57.188Z,2.60
2018-06-09T11:31:26.500Z,2.50
2018-06-09T11:33:55.830Z,2.58
2018-06-09T11:36:25.140Z,2.15
2018-06-09T11:38:54.391Z,2.02
2018-06-09T11:41:23.728Z,2.02
2018-06-09T11:43:53.492Z,2.30
2018-06-09T11:46:22.772Z,2.17
2018-06-09T11:48:52.285Z,2.35
2018-06-09T11:51:21.625Z,1.87
2018-06-09T11:53:50.981Z,2.10
2018-06-09T11:56:20.324Z,2.10
2018-06-09T11:58:49.018Z,2.02
2018-06-09T12:01:18.448Z,2.22
2018-06-09T12:03:47.692Z,2.02
2018-06-09T12:06:17.062Z,2.02
2018-06-09T12:08:46.386Z,2.00
2018-06-09T12:11:15.716Z,2.00
2018-06-09T12:13:45.066Z,1.90
2018-06-09T12:16:14.350Z,2.00
2018-06-09T12:18:43.599Z,1.98
2018-06-09T12:21:12.972Z,2.08
2018-06-09T12:23:42.300Z,1.90
2018-06-09T12:26:11.583Z,2.47
2018-06-09T12:28:40.885Z,2.30
2018-06-09T12:31:10.155Z,2.42
2018-06-09T12:33:39.505Z,2.20
2018-06-09T12:36:08.749Z,2.02
2018-06-09T12:38:38.023Z,2.60
2018-06-09T12:41:07.421Z,2.00
2018-06-09T12:43:36.679Z,2.08
2018-06-09T12:46:05.984Z,1.85
2018-06-09T12:48:35.285Z,1.82
2018-06-09T12:51:04.614Z,1.98
2018-06-09T12:53:33.888Z,2.08
2018-06-09T12:56:03.120Z,2.00
2018-06-09T12:58:32.415Z,1.70
2018-06-09T13:01:01.809Z,2.05
2018-06-09T13:03:31.108Z,1.77
2018-06-09T13:06:00.482Z,1.60
2018-06-09T13:08:29.725Z,1.70
2018-06-09T13:10:59.156Z,1.77
2018-06-09T13:13:28.423Z,2.15
2018-06-09T13:15:57.740Z,1.90
2018-06-09T13:18:27.089Z,1.82
2018-06-09T13:20:56.439Z,1.90
2018-06-09T13:23:25.696Z,1.70
2018-06-09T13:25:55.013Z,1.72
2018-06-09T13:28:24.316Z,1.80
2018-06-09T13:30:55.000Z,1.85
2018-06-09T13:33:24.433Z,1.80
2018-06-09T13:35:53.872Z,1.60
2018-06-09T13:38:23.260Z,2.10
2018-06-09T13:40:52.568Z,1.60
2018-06-09T13:43:21.852Z,1.72
2018-06-09T13:45:51.227Z,1.55
2018-06-09T13:48:20.504Z,1.77
2018-06-09T13:50:49.909Z,1.60
2018-06-09T13:53:18.647Z,1.62
2018-06-09T13:55:47.921Z,1.60
2018-06-09T13:58:17.324Z,1.60
2018-06-09T14:00:46.707Z,1.50
2018-06-09T14:03:16.148Z,1.60
2018-06-09T14:05:45.533Z,1.60
2018-06-09T14:08:14.834Z,1.45
2018-06-09T14:10:44.268Z,1.70
2018-06-09T14:13:13.573Z,1.57
2018-06-09T14:15:42.888Z,1.32
2018-06-09T14:18:12.213Z,1.35
2018-06-09T14:20:41.534Z,1.32
2018-06-09T14:23:10.816Z,1.10
2018-06-09T14:25:40.112Z,1.42
2018-06-09T14:28:09.709Z,1.40
2018-06-09T14:30:39.151Z,1.50
2018-06-09T14:33:08.489Z,1.40
2018-06-09T14:35:37.884Z,1.50
2018-06-09T14:38:07.180Z,1.42
2018-06-09T14:40:36.491Z,1.62
2018-06-09T14:43:06.061Z,1.40
2018-06-09T14:45:35.297Z,1.42
2018-06-09T14:48:04.616Z,1.30
2018-06-09T14:50:34.041Z,1.12
2018-06-09T14:53:03.423Z,1.47
2018-06-09T14:55:32.729Z,1.30
2018-06-09T14:58:02.039Z,1.40
2018-06-09T15:00:31.429Z,1.60
2018-06-09T15:03:00.746Z,1.35
2018-06-09T15:05:30.030Z,1.40
2018-06-09T15:07:59.343Z,1.42
2018-06-09T15:10:28.685Z,1.45
2018-06-09T15:12:57.904Z,1.40
2018-06-09T15:15:27.366Z,1.30
2018-06-09T15:18:03.134Z,1.25
2018-06-09T15:20:32.453Z,1.37
2018-06-09T15:23:01.737Z,1.30
2018-06-09T15:25:30.969Z,1.02
2018-06-09T15:27:59.747Z,1.15
2018-06-09T15:30:29.045Z,1.20
2018-06-09T15:32:58.316Z,1.07
2018-06-09T15:35:27.601Z,1.30
2018-06-09T15:37:56.910Z,1.17
2018-06-09T15:40:26.346Z,1.22
2018-06-09T15:42:55.667Z,1.20
2018-06-09T15:45:24.980Z,1.27
2018-06-09T15:47:54.369Z,0.93
2018-06-09T15:50:23.768Z,1.00
2018-06-09T15:52:53.061Z,1.15
2018-06-09T15:55:22.365Z,0.85
2018-06-09T15:57:51.150Z,1.05
2018-06-09T16:00:20.472Z,1.00
2018-06-09T16:02:49.761Z,1.17
2018-06-09T16:05:19.074Z,1.20
2018-06-09T16:07:48.391Z,1.35
2018-06-09T16:10:17.752Z,1.30
2018-06-09T16:12:47.352Z,1.20
2018-06-09T16:15:16.652Z,0.98
2018-06-09T16:17:45.932Z,1.10
2018-06-09T16:20:15.481Z,1.20
2018-06-09T16:22:44.763Z,1.22
2018-06-09T16:25:14.067Z,1.30
2018-06-09T16:27:43.372Z,1.30
2018-06-09T16:30:12.812Z,0.88
2018-06-09T16:32:42.079Z,1.05
2018-06-09T16:35:11.353Z,1.10
2018-06-09T16:37:40.750Z,1.40
2018-06-09T16:40:10.097Z,1.70
2018-06-09T16:42:39.452Z,1.45
2018-06-09T16:45:08.971Z,1.72
2018-06-09T16:47:38.284Z,1.70
2018-06-09T16:50:08.362Z,1.80
2018-06-09T16:52:38.117Z,1.80
2018-06-09T16:55:07.425Z,1.90
2018-06-09T16:57:36.896Z,1.80
2018-06-09T17:00:06.538Z,2.10
2018-06-09T17:02:36.133Z,1.87
2018-06-09T17:05:05.465Z,2.00
2018-06-09T17:07:34.875Z,2.00
2018-06-09T17:10:04.644Z,2.13
2018-06-09T17:12:34.075Z,1.90
2018-06-09T17:15:02.779Z,1.87
2018-06-09T17:17:32.147Z,2.03
2018-06-09T17:20:01.454Z,2.00
2018-06-09T17:22:30.985Z,2.40
2018-06-09T17:25:00.732Z,1.93
2018-06-09T17:27:30.100Z,2.10
2018-06-09T17:29:59.369Z,2.40
2018-06-09T17:32:28.731Z,1.90
2018-06-09T17:34:58.025Z,2.00
2018-06-09T17:37:27.591Z,2.20
2018-06-09T17:39:56.588Z,2.10
2018-06-09T17:42:25.361Z,2.03
2018-06-09T17:44:54.721Z,2.20
2018-06-09T17:47:24.044Z,2.33
2018-06-09T17:49:53.328Z,2.47
2018-06-09T17:52:22.800Z,2.07
2018-06-09T17:54:52.068Z,2.30
2018-06-09T17:57:21.465Z,2.00
2018-06-09T17:59:50.926Z,2.20
2018-06-09T18:02:20.264Z,2.13
2018-06-09T18:04:49.561Z,1.90
2018-06-09T18:07:18.824Z,2.20
2018-06-09T18:09:48.093Z,2.23
2018-06-09T18:12:17.536Z,2.47
2018-06-09T18:14:46.860Z,2.37
2018-06-09T18:17:16.206Z,2.30
2018-06-09T18:19:45.468Z,2.27
2018-06-09T18:22:14.885Z,2.30
2018-06-09T18:24:44.203Z,2.30
2018-06-09T18:27:13.469Z,2.40
2018-06-09T18:29:42.901Z,2.30
2018-06-09T18:32:12.283Z,2.40
2018-06-09T18:34:41.579Z,2.00
2018-06-09T18:37:10.887Z,2.40
2018-06-09T18:39:40.151Z,2.10
2018-06-09T18:42:09.481Z,2.00
2018-06-09T18:44:38.788Z,2.50
2018-06-09T18:47:08.042Z,2.00
2018-06-09T18:49:37.352Z,2.23
2018-06-09T18:52:06.775Z,2.43
2018-06-09T18:54:36.121Z,2.17
2018-06-09T18:57:05.488Z,2.03
2018-06-09T18:59:34.859Z,2.03
2018-06-09T19:02:04.360Z,2.07
2018-06-09T19:04:33.632Z,2.13
2018-06-09T19:07:02.964Z,2.10
2018-06-09T19:09:32.219Z,2.03
2018-06-09T19:12:01.641Z,2.30
2018-06-09T19:14:30.936Z,2.20
2018-06-09T19:17:00.187Z,2.27
2018-06-09T19:19:29.433Z,2.30
2018-06-09T19:21:58.872Z,1.80
2018-06-09T19:24:28.070Z,2.30
2018-06-09T19:26:57.331Z,2.10
2018-06-09T19:29:26.591Z,2.13
2018-06-09T19:31:55.919Z,1.70
2018-06-09T19:34:25.424Z,2.00
2018-06-09T19:36:54.676Z,1.87
2018-06-09T19:39:23.969Z,1.97
2018-06-09T19:41:53.268Z,2.10
2018-06-09T19:44:22.577Z,2.10
2018-06-09T19:46:51.864Z,2.30
2018-06-09T19:49:21.138Z,2.00
2018-06-09T19:51:52.053Z,2.17
2018-06-09T19:54:21.360Z,2.33
2018-06-09T19:56:50.636Z,2.20
2018-06-09T19:59:19.929Z,1.87
2018-06-09T20:01:49.264Z,2.03
2018-06-09T20:04:18.584Z,2.20
2018-06-09T20:06:48.321Z,2.10
2018-06-09T20:09:17.550Z,2.37
2018-06-09T20:11:46.860Z,2.00
2018-06-09T20:14:16.125Z,2.17
2018-06-09T20:16:45.413Z,2.23
2018-06-09T20:19:14.652Z,2.10
2018-06-09T20:21:44.247Z,2.43
2018-06-09T20:24:13.532Z,2.10
2018-06-09T20:26:42.851Z,2.10
2018-06-09T20:29:12.151Z,2.50
2018-06-09T20:31:41.831Z,2.50
2018-06-09T20:34:11.111Z,2.60
2018-06-09T20:36:40.483Z,2.50
2018-06-09T20:39:09.861Z,2.50
2018-06-09T20:41:39.209Z,2.40
2018-06-09T20:44:08.538Z,2.30
2018-06-09T20:46:37.877Z,2.40
2018-06-09T20:49:07.140Z,2.50
2018-06-09T20:51:36.615Z,2.30
2018-06-09T20:54:05.863Z,2.53
2018-06-09T20:56:35.216Z,2.50
2018-06-09T20:59:04.468Z,3.00
2018-06-09T21:01:33.801Z,2.73
2018-06-09T21:04:03.424Z,2.50
2018-06-09T21:06:32.785Z,2.80
2018-06-09T21:09:02.057Z,2.70
2018-06-09T21:11:31.470Z,2.60
2018-06-09T21:14:00.760Z,2.50
2018-06-09T21:16:30.033Z,2.40
2018-06-09T21:18:59.339Z,2.50
2018-06-09T21:21:28.666Z,2.57
2018-06-09T21:23:57.928Z,2.67
2018-06-09T21:26:31.341Z,2.90
2018-06-09T21:29:00.701Z,2.80
2018-06-09T21:31:34.355Z,2.57
2018-06-09T21:35:19.716Z,2.60
2018-06-09T21:37:49.836Z,3.33
2018-06-09T21:40:25.308Z,2.60
2018-06-09T21:43:00.652Z,3.20
2018-06-09T21:45:48.476Z,3.30
2018-06-09T21:48:20.082Z,3.00
2018-06-09T21:50:50.008Z,3.03
2018-06-09T21:53:18.931Z,3.67
2018-06-09T21:55:48.321Z,3.27
2018-06-09T21:58:17.896Z,3.47
2018-06-09T22:00:47.679Z,3.23
2018-06-09T22:03:17.086Z,3.20
2018-06-09T22:05:46.682Z,3.10
2018-06-09T22:08:16.134Z,3.17
2018-06-09T22:10:45.656Z,3.40
2018-06-09T22:13:15.299Z,3.07
2018-06-09T22:15:44.769Z,2.83
2018-06-09T22:18:14.379Z,3.50
2018-06-09T22:20:43.961Z,3.13
2018-06-09T22:23:13.319Z,3.60
2018-06-09T22:25:47.776Z,3.30
2018-06-09T22:28:16.538Z,3.07
2018-06-09T22:30:45.866Z,3.70
2018-06-09T22:33:15.443Z,3.20
2018-06-09T22:35:44.700Z,3.00
2018-06-09T22:38:14.166Z,3.10
2018-06-09T22:40:43.540Z,3.20
2018-06-09T22:43:12.760Z,3.53
2018-06-09T22:45:42.148Z,3.50
2018-06-09T22:48:11.374Z,3.10
2018-06-09T22:50:41.039Z,3.40
2018-06-09T22:53:10.273Z,3.63
2018-06-09T22:55:40.017Z,3.47
2018-06-09T22:58:08.937Z,3.47
2018-06-09T23:00:42.873Z,4.30
2018-06-09T23:03:12.163Z,4.60
2018-06-09T23:05:41.357Z,4.73
2018-06-09T23:08:10.689Z,4.70
2018-06-09T23:10:40.079Z,4.37
2018-06-09T23:13:09.461Z,5.13
2018-06-09T23:15:38.728Z,4.83
2018-06-09T23:18:08.055Z,4.60
2018-06-09T23:20:37.357Z,4.80
2018-06-09T23:23:06.564Z,4.30
2018-06-09T23:25:35.761Z,4.70
2018-06-09T23:28:05.084Z,6.13
2018-06-09T23:30:34.407Z,5.70
2018-06-09T23:33:03.628Z,6.33
2018-06-09T23:35:32.861Z,5.80
2018-06-09T23:38:02.059Z,6.10
2018-06-09T23:40:31.360Z,5.37
2018-06-09T23:43:00.800Z,6.27
2018-06-09T23:45:30.060Z,5.87
2018-06-09T23:47:59.313Z,5.70
2018-06-09T23:50:28.660Z,7.37
2018-06-09T23:52:58.687Z,6.50
2018-06-09T23:55:29.139Z,7.00
2018-06-09T23:57:58.408Z,6.90
